HSPN

Port Sudan New International Airport

Port Sudan, Sudan
TAF HSPN 210500Z 2106/2212 18012KT 9999 FEW040 SCT140 TEMPO 2110/2112 02010G20KT
Issued Valid From Valid To
Jun-21 @ 05:00 UTC
(5 hours ago)
Jun-21 @ 06:00 UTC
(4 hours ago)
Jun-22 @ 12:00 UTC
(-1 days ago)
Jun-21 @ 06:00 to Jun-22 @ 12:00
TAF HSPN 210500Z 2106/2212 18012KT 9999 FEW040 SCT140
Wind Visibility Clouds
180° at 12 knots 10,000+ meters
  • Few at 4,000' AGL
  • Scattered at 14,000' AGL
Temporary Jun-21 @ 10:00 to Jun-21 @ 12:00
TEMPO 2110/2112 02010G20KT
Wind
20° at 10 knots
 Gusting to 20 knots
TAF HSPN 210500Z 2106/2212 18012KT 9999 FEW040 SCT140 TEMPO 2110/2112 02010G20KT
Issued Jun-21 @ 05:00 UTC
(5 hours ago)
Valid From Jun-21 @ 06:00 UTC
(4 hours ago)
Valid To Jun-22 @ 12:00 UTC
(-1 days ago)
Jun-21 @ 06:00 - Jun-22 @ 12:00
Wind Visibility
180° at 12 knots 10,000+ meters
Clouds
  • Few at 4,000' AGL
  • Scattered at 14,000' AGL
Temporary Jun-21 @ 10:00 - Jun-21 @ 12:00
Wind
20° at 10 knots
 Gusting to 20 knots